createdAt,value
2019-06-07T00:00:38.084Z,94.32
2019-06-07T00:03:36.568Z,93.06
2019-06-07T00:06:43.010Z,91.94
2019-06-07T00:09:49.545Z,94.45
2019-06-07T00:12:56.142Z,96.22
2019-06-07T00:16:02.735Z,99.68
2019-06-07T00:19:09.656Z,96.92
2019-06-07T00:22:28.577Z,95.93
2019-06-07T00:25:24.747Z,100.00
2019-06-07T00:28:31.495Z,97.24
2019-06-07T00:31:37.895Z,95.43
2019-06-07T00:34:44.498Z,94.07
2019-06-07T00:37:50.947Z,93.98
2019-06-07T00:40:57.405Z,93.36
2019-06-07T00:44:03.872Z,93.52
2019-06-07T00:47:10.691Z,93.79
2019-06-07T00:50:21.901Z,91.72
2019-06-07T00:53:32.062Z,92.01
2019-06-07T00:56:35.615Z,87.47
2019-06-07T00:59:42.179Z,94.16
2019-06-07T01:02:49.493Z,96.72
2019-06-07T01:05:55.879Z,98.25
2019-06-07T01:09:02.272Z,100.00
2019-06-07T01:12:10.367Z,98.93
2019-06-07T01:15:22.209Z,100.00
2019-06-07T01:18:41.169Z,100.00
2019-06-07T01:21:37.032Z,97.84
2019-06-07T01:24:43.526Z,93.71
2019-06-07T01:27:50.229Z,95.03
2019-06-07T01:30:56.711Z,98.91
2019-06-07T01:34:03.097Z,98.33
2019-06-07T01:37:09.663Z,95.86
2019-06-07T01:40:17.174Z,96.35
2019-06-07T01:43:28.190Z,100.00
2019-06-07T01:46:32.997Z,95.57
2019-06-07T01:49:39.392Z,95.53
2019-06-07T01:52:45.849Z,93.49
2019-06-07T01:55:52.338Z,94.21
2019-06-07T01:58:58.780Z,91.64
2019-06-07T02:02:05.506Z,87.01
2019-06-07T02:05:12.283Z,86.44
2019-06-07T02:08:20.109Z,92.39
2019-06-07T02:11:31.917Z,86.81
2019-06-07T02:14:37.805Z,92.00
2019-06-07T02:17:44.272Z,92.39
2019-06-07T02:20:51.812Z,92.73
2019-06-07T02:23:58.210Z,93.71
2019-06-07T02:27:04.755Z,93.59
2019-06-07T02:33:24.180Z,93.49
2019-06-07T02:36:41.020Z,93.98
2019-06-07T02:39:42.501Z,94.42
2019-06-07T02:42:48.990Z,87.56
2019-06-07T02:45:55.509Z,91.90
2019-06-07T02:49:01.938Z,93.64
2019-06-07T02:52:08.439Z,94.43
2019-06-07T02:55:15.940Z,94.66
2019-06-07T02:58:26.138Z,94.19
2019-06-07T03:01:38.679Z,94.60
2019-06-07T03:04:44.748Z,93.90
2019-06-07T03:07:50.681Z,93.30
2019-06-07T03:10:58.005Z,94.57
2019-06-07T03:14:05.525Z,95.43
2019-06-07T03:17:30.456Z,95.54
2019-06-07T03:20:36.860Z,94.76
2019-06-07T03:23:45.113Z,94.72
2019-06-07T03:29:59.971Z,96.60
2019-06-07T03:33:06.378Z,98.61
2019-06-07T03:36:23.348Z,100.00
2019-06-07T03:39:22.054Z,100.00
2019-06-07T03:42:29.219Z,100.00
2019-06-07T03:45:40.916Z,100.00
2019-06-07T03:48:44.002Z,100.00
2019-06-07T03:51:50.509Z,100.00
2019-06-07T03:54:57.978Z,100.00
2019-06-07T04:01:12.799Z,100.00
2019-06-07T04:04:19.507Z,100.00
2019-06-07T04:07:26.019Z,98.74
2019-06-07T04:10:48.295Z,99.50
2019-06-07T04:13:42.965Z,94.18
2019-06-07T04:16:49.213Z,96.04
2019-06-07T04:19:55.649Z,99.51
2019-06-07T04:23:02.150Z,99.68
2019-06-07T04:26:09.582Z,95.90
2019-06-07T04:29:41.249Z,95.51
2019-06-07T04:32:25.938Z,94.89
2019-06-07T04:35:34.396Z,97.64
2019-06-07T04:38:42.612Z,100.00
2019-06-07T04:41:51.434Z,100.00
2019-06-07T04:44:59.743Z,100.00
2019-06-07T04:48:08.294Z,100.00
2019-06-07T04:51:17.110Z,97.65
2019-06-07T04:54:23.727Z,100.00
2019-06-07T04:57:33.477Z,99.64
2019-06-07T05:00:52.826Z,100.00
2019-06-07T05:03:47.332Z,100.00
2019-06-07T05:06:55.357Z,100.00
2019-06-07T05:10:01.962Z,100.00
2019-06-07T05:13:08.475Z,100.00
2019-06-07T05:16:15.153Z,100.00
2019-06-07T05:19:24.347Z,100.00
2019-06-07T05:22:31.697Z,100.00
2019-06-07T05:25:43.072Z,100.00
2019-06-07T05:28:47.211Z,100.00
2019-06-07T05:31:54.072Z,97.71
2019-06-07T05:35:00.614Z,100.00
2019-06-07T05:38:08.024Z,100.00
2019-06-07T05:41:15.618Z,99.83
2019-06-07T05:44:24.921Z,100.00
2019-06-07T05:47:31.787Z,98.56
2019-06-07T05:50:48.660Z,97.69
2019-06-07T05:53:46.578Z,97.10
2019-06-07T05:56:53.010Z,96.63
2019-06-07T06:00:02.623Z,97.26
2019-06-07T06:03:09.246Z,100.00
2019-06-07T06:06:15.675Z,96.97
2019-06-07T06:09:25.257Z,97.78
2019-06-07T06:12:35.522Z,96.62
2019-06-07T06:15:51.600Z,96.84
2019-06-07T06:18:49.227Z,95.34
2019-06-07T06:21:55.797Z,96.83
2019-06-07T06:25:30.728Z,96.55
2019-06-07T06:28:12.947Z,97.17
2019-06-07T06:31:22.049Z,98.93
2019-06-07T06:34:28.448Z,91.48
2019-06-07T06:37:34.949Z,94.48
2019-06-07T06:40:45.023Z,90.01
2019-06-07T06:43:52.614Z,89.22
2019-06-07T06:46:59.298Z,91.51
2019-06-07T06:50:07.788Z,95.73
2019-06-07T06:53:14.236Z,90.03
2019-06-07T06:56:21.738Z,91.76
2019-06-07T06:59:38.885Z,92.65
2019-06-07T07:03:27.019Z,92.77
2019-06-07T07:05:49.784Z,95.71
2019-06-07T07:08:54.998Z,91.07
2019-06-07T07:12:12.345Z,90.96
2019-06-07T07:15:13.232Z,89.08
2019-06-07T07:18:19.674Z,92.84
2019-06-07T07:21:26.080Z,94.09
2019-06-07T07:24:32.561Z,92.60
2019-06-07T07:27:39.080Z,93.53
2019-06-07T07:30:52.570Z,93.10
2019-06-07T07:34:30.262Z,93.73
2019-06-07T07:37:05.228Z,92.33
2019-06-07T07:40:55.559Z,89.24
2019-06-07T07:43:20.327Z,88.27
2019-06-07T07:46:29.841Z,89.47
2019-06-07T07:49:34.941Z,86.59
2019-06-07T07:52:45.831Z,87.07
2019-06-07T07:55:54.962Z,85.09
2019-06-07T07:59:01.992Z,86.58
2019-06-07T08:02:08.478Z,88.26
2019-06-07T08:05:23.475Z,85.87
2019-06-07T08:08:25.546Z,84.54
2019-06-07T08:11:31.978Z,86.92
2019-06-07T08:14:38.509Z,87.11
2019-06-07T08:17:47.081Z,83.79
2019-06-07T08:21:17.248Z,86.27
2019-06-07T08:24:04.646Z,85.49
2019-06-07T08:27:25.267Z,85.77
2019-06-07T08:33:27.197Z,82.62
2019-06-07T08:36:41.819Z,86.14
2019-06-07T08:39:45.185Z,84.84
2019-06-07T08:43:10.277Z,81.80
2019-06-07T08:46:06.445Z,85.78
2019-06-07T08:49:07.991Z,84.71
2019-06-07T08:52:14.338Z,83.70
2019-06-07T08:55:20.907Z,82.32
2019-06-07T08:58:27.297Z,83.21
2019-06-07T09:01:33.719Z,83.03
2019-06-07T09:04:40.245Z,84.50
2019-06-07T09:07:46.830Z,82.62
2019-06-07T09:10:54.967Z,83.96
2019-06-07T09:14:05.342Z,81.54
2019-06-07T09:17:12.288Z,81.56
2019-06-07T09:20:35.916Z,82.14
2019-06-07T09:23:26.993Z,81.86
2019-06-07T09:26:36.695Z,81.48
2019-06-07T09:29:44.288Z,80.41
2019-06-07T09:32:50.772Z,83.03
2019-06-07T09:36:01.555Z,82.45
2019-06-07T09:39:12.344Z,82.20
2019-06-07T09:42:16.775Z,80.49
2019-06-07T09:45:23.308Z,80.22
2019-06-07T09:51:38.025Z,78.85
2019-06-07T09:57:52.634Z,77.82
2019-06-07T10:01:00.150Z,78.59
2019-06-07T10:04:16.731Z,79.61
2019-06-07T10:07:30.860Z,77.63
2019-06-07T10:13:32.667Z,76.96
2019-06-07T10:16:46.787Z,76.92
2019-06-07T10:19:47.342Z,75.80
2019-06-07T10:22:53.897Z,76.70
2019-06-07T10:26:01.535Z,76.06
2019-06-07T10:29:09.088Z,75.73
2019-06-07T10:32:17.280Z,76.26
2019-06-07T10:35:23.823Z,75.84
2019-06-07T10:38:30.229Z,71.26
2019-06-07T10:41:36.903Z,72.00
2019-06-07T10:44:43.275Z,70.78
2019-06-07T10:47:49.694Z,72.15
2019-06-07T10:50:56.120Z,70.47
2019-06-07T10:54:10.692Z,68.72
2019-06-07T10:57:14.592Z,66.60
2019-06-07T11:00:20.070Z,67.59
2019-06-07T11:03:26.557Z,66.32
2019-06-07T11:06:33.014Z,65.58
2019-06-07T11:09:39.494Z,66.04
2019-06-07T11:13:12.384Z,64.97
2019-06-07T11:16:19.277Z,64.26
2019-06-07T11:19:25.755Z,64.74
2019-06-07T11:22:32.153Z,65.57
2019-06-07T11:25:38.525Z,65.30
2019-06-07T11:28:44.923Z,64.86
2019-06-07T11:31:54.355Z,64.03
2019-06-07T11:35:00.751Z,64.68
2019-06-07T11:38:08.290Z,66.56
2019-06-07T11:41:15.690Z,62.46
2019-06-07T11:44:23.199Z,59.86
2019-06-07T11:47:29.382Z,61.47
2019-06-07T11:50:35.605Z,61.92
2019-06-07T11:53:42.133Z,58.81
2019-06-07T11:56:49.988Z,58.26
2019-06-07T11:59:56.143Z,60.13
2019-06-07T12:03:02.294Z,59.35
2019-06-07T12:06:14.952Z,59.45
2019-06-07T12:09:22.604Z,61.39
2019-06-07T12:12:28.699Z,61.22
2019-06-07T12:15:34.826Z,60.32
2019-06-07T12:18:41.250Z,59.05
2019-06-07T12:21:48.521Z,60.76
2019-06-07T12:24:54.898Z,60.98
2019-06-07T12:28:01.005Z,58.94
2019-06-07T12:31:07.182Z,59.65
2019-06-07T12:34:13.408Z,57.90
2019-06-07T12:37:22.815Z,60.45
2019-06-07T12:40:32.217Z,59.68
2019-06-07T12:46:40.688Z,59.47
2019-06-07T12:49:46.890Z,58.54
2019-06-07T12:52:53.102Z,59.18
2019-06-07T12:56:00.893Z,56.87
2019-06-07T12:59:08.637Z,57.65
2019-06-07T13:02:16.227Z,57.96
2019-06-07T13:05:23.867Z,55.72
2019-06-07T13:08:30.946Z,56.51
2019-06-07T13:11:42.674Z,59.47
2019-06-07T13:14:49.766Z,58.70
2019-06-07T13:17:58.734Z,57.80
2019-06-07T13:21:04.998Z,57.59
2019-06-07T13:24:11.333Z,56.53
2019-06-07T13:27:18.286Z,56.25
2019-06-07T13:30:25.631Z,55.34
2019-06-07T13:33:37.352Z,57.21
2019-06-07T13:36:40.167Z,55.98
2019-06-07T13:39:46.271Z,56.58
2019-06-07T13:42:52.604Z,56.65
2019-06-07T13:45:59.019Z,56.92
2019-06-07T13:49:06.050Z,56.17
2019-06-07T13:52:12.318Z,56.72
2019-06-07T13:55:21.842Z,58.28
2019-06-07T13:58:28.758Z,55.12
2019-06-07T14:01:35.033Z,56.01
2019-06-07T14:04:41.205Z,55.98
2019-06-07T14:07:48.406Z,56.58
2019-06-07T14:10:55.863Z,57.45
2019-06-07T14:14:02.072Z,55.42
2019-06-07T14:17:09.204Z,54.72
2019-06-07T14:20:16.154Z,54.28
2019-06-07T14:23:39.152Z,53.65
2019-06-07T14:26:32.526Z,54.71
2019-06-07T14:29:39.087Z,54.30
2019-06-07T14:32:45.215Z,55.35
2019-06-07T14:35:51.408Z,55.65
2019-06-07T14:38:57.716Z,55.53
2019-06-07T14:42:09.990Z,53.87
2019-06-07T14:45:15.098Z,54.12
2019-06-07T14:48:21.215Z,57.13
2019-06-07T14:51:28.644Z,55.69
2019-06-07T14:54:38.848Z,54.76
2019-06-07T14:57:43.008Z,54.38
2019-06-07T15:00:49.226Z,54.30
2019-06-07T15:03:55.487Z,54.67
2019-06-07T15:07:01.633Z,54.82
2019-06-07T15:10:12.194Z,55.35
2019-06-07T15:13:18.290Z,54.53
2019-06-07T15:16:24.418Z,55.20
2019-06-07T15:19:31.167Z,55.25
2019-06-07T15:22:38.781Z,55.84
2019-06-07T15:25:45.736Z,56.47
2019-06-07T15:28:52.048Z,56.56
2019-06-07T15:31:58.326Z,56.16
2019-06-07T15:35:06.428Z,54.52
2019-06-07T15:38:12.535Z,54.93
2019-06-07T15:41:18.804Z,55.83
2019-06-07T15:44:24.935Z,54.38
2019-06-07T15:47:31.714Z,54.34
2019-06-07T15:50:38.451Z,53.28
2019-06-07T15:53:45.022Z,53.87
2019-06-07T15:56:51.297Z,57.17
2019-06-07T15:59:57.529Z,57.20
2019-06-07T16:03:05.195Z,56.40
2019-06-07T16:10:53.468Z,56.95
2019-06-07T16:13:59.590Z,57.16
2019-06-07T16:17:08.359Z,57.18
2019-06-07T16:20:15.241Z,56.66
2019-06-07T16:23:21.486Z,57.03
2019-06-07T16:26:27.582Z,57.08
2019-06-07T16:29:34.555Z,58.43
2019-06-07T16:32:41.762Z,58.16
2019-06-07T16:35:48.506Z,57.15
2019-06-07T16:38:54.889Z,58.83
2019-06-07T16:42:01.022Z,58.58
2019-06-07T16:45:07.769Z,57.16
2019-06-07T16:48:14.170Z,58.89
2019-06-07T16:51:20.296Z,58.66
2019-06-07T16:54:26.785Z,59.82
2019-06-07T16:57:32.955Z,59.64
2019-06-07T17:00:40.541Z,59.42
2019-06-07T17:03:47.635Z,59.55
2019-06-07T17:06:53.945Z,60.26
2019-06-07T17:10:00.054Z,60.28
2019-06-07T17:13:08.560Z,60.09
2019-06-07T17:16:15.026Z,61.25
2019-06-07T17:19:21.159Z,61.47
2019-06-07T17:22:27.368Z,62.41
2019-06-07T17:25:33.717Z,61.52
2019-06-07T17:28:40.094Z,61.87
2019-06-07T17:31:46.487Z,61.82
2019-06-07T17:34:53.609Z,61.65
2019-06-07T17:37:59.808Z,61.52
2019-06-07T17:41:09.326Z,62.27
2019-06-07T17:44:15.739Z,62.55
2019-06-07T17:47:23.609Z,63.50
2019-06-07T17:50:30.075Z,62.83
2019-06-07T17:53:36.446Z,62.69
2019-06-07T17:56:44.336Z,62.82
2019-06-07T17:59:51.145Z,63.46
2019-06-07T18:02:58.614Z,63.63
2019-06-07T18:06:07.427Z,63.64
2019-06-07T18:09:14.527Z,63.69
2019-06-07T18:12:20.974Z,64.82
2019-06-07T18:15:41.159Z,65.73
2019-06-07T18:18:50.682Z,66.93
2019-06-07T18:21:58.919Z,65.85
2019-06-07T18:26:26.831Z,66.12
2019-06-07T18:29:55.089Z,67.26
2019-06-07T18:33:01.506Z,66.00
2019-06-07T18:36:09.649Z,67.40
2019-06-07T18:39:16.092Z,68.54
2019-06-07T18:42:23.324Z,68.29
2019-06-07T18:45:29.979Z,68.68
2019-06-07T18:48:36.547Z,68.83
2019-06-07T18:51:44.579Z,68.55
2019-06-07T18:54:51.061Z,69.21
2019-06-07T18:57:59.319Z,69.68
2019-06-07T19:01:06.582Z,69.46
2019-06-07T19:04:12.946Z,69.46
2019-06-07T19:07:19.402Z,68.34
2019-06-07T19:10:26.650Z,71.50
2019-06-07T19:13:33.051Z,71.98
2019-06-07T19:16:39.515Z,72.04
2019-06-07T19:19:46.090Z,72.59
2019-06-07T19:22:52.572Z,74.03
2019-06-07T19:26:00.648Z,72.83
2019-06-07T19:29:07.869Z,71.71
2019-06-07T19:32:14.299Z,72.92
2019-06-07T19:35:21.294Z,71.73
2019-06-07T19:38:29.008Z,72.72
2019-06-07T19:41:35.806Z,71.16
2019-06-07T19:44:53.073Z,70.97
2019-06-07T19:47:50.296Z,74.39
2019-06-07T19:50:56.917Z,72.36
2019-06-07T19:54:05.120Z,71.49
2019-06-07T19:57:12.060Z,74.24
2019-06-07T20:00:20.622Z,74.05
2019-06-07T20:03:26.990Z,72.71
2019-06-07T20:06:33.444Z,74.66
2019-06-07T20:09:39.906Z,75.52
2019-06-07T20:12:46.464Z,73.78
2019-06-07T20:15:54.670Z,74.50
2019-06-07T20:19:03.517Z,74.47
2019-06-07T20:22:09.604Z,74.90
2019-06-07T20:25:16.340Z,75.90
2019-06-07T20:28:23.105Z,75.93
2019-06-07T20:31:29.597Z,74.66
2019-06-07T20:34:36.145Z,75.91
2019-06-07T20:37:42.664Z,77.59
2019-06-07T20:40:49.128Z,75.84
2019-06-07T20:43:55.535Z,78.61
2019-06-07T20:47:02.216Z,77.00
2019-06-07T20:50:09.094Z,75.61
2019-06-07T20:53:15.622Z,76.91
2019-06-07T20:56:24.593Z,75.86
2019-06-07T20:59:30.541Z,76.07
2019-06-07T21:02:38.091Z,77.05
2019-06-07T21:05:45.693Z,76.57
2019-06-07T21:08:52.099Z,76.36
2019-06-07T21:11:59.821Z,76.65
2019-06-07T21:15:11.858Z,76.68
2019-06-07T21:18:19.408Z,77.35
2019-06-07T21:21:24.081Z,77.12
2019-06-07T21:24:30.971Z,76.78
2019-06-07T21:27:37.402Z,77.08
2019-06-07T21:30:43.911Z,77.02
2019-06-07T21:33:50.325Z,76.91
2019-06-07T21:36:57.208Z,76.44
2019-06-07T21:40:04.206Z,76.37
2019-06-07T21:43:11.003Z,76.29
2019-06-07T21:46:20.416Z,75.52
2019-06-07T21:49:25.752Z,74.62
2019-06-07T21:52:32.241Z,76.08
2019-06-07T21:55:38.664Z,76.94
2019-06-07T21:58:45.161Z,77.57
2019-06-07T22:01:51.726Z,75.97
2019-06-07T22:04:58.383Z,78.37
2019-06-07T22:08:06.014Z,78.90
2019-06-07T22:11:12.587Z,77.18
2019-06-07T22:14:21.093Z,76.43
2019-06-07T22:17:27.457Z,77.18
2019-06-07T22:20:35.149Z,77.26
2019-06-07T22:23:43.778Z,77.33
2019-06-07T22:26:49.953Z,76.81
2019-06-07T22:29:56.416Z,79.44
2019-06-07T22:33:04.295Z,80.07
2019-06-07T22:36:11.124Z,79.08
2019-06-07T22:39:17.906Z,79.62
2019-06-07T22:42:24.475Z,78.65
2019-06-07T22:45:30.994Z,78.83
2019-06-07T22:48:37.484Z,79.60
2019-06-07T22:51:43.985Z,79.77
2019-06-07T22:54:50.461Z,80.02
2019-06-07T22:57:58.642Z,79.32
2019-06-07T23:01:05.088Z,78.78
2019-06-07T23:04:12.509Z,79.19
2019-06-07T23:07:19.331Z,78.01
2019-06-07T23:10:26.096Z,77.22
2019-06-07T23:13:32.499Z,75.20
2019-06-07T23:16:54.200Z,74.20
2019-06-07T23:19:48.242Z,73.22
2019-06-07T23:22:54.725Z,71.72
2019-06-07T23:26:01.104Z,71.49
2019-06-07T23:29:10.215Z,71.23
2019-06-07T23:32:16.884Z,72.19
2019-06-07T23:35:23.292Z,72.37
2019-06-07T23:38:29.684Z,71.37
2019-06-07T23:41:36.240Z,70.77
2019-06-07T23:44:42.610Z,69.31
2019-06-07T23:47:49.020Z,69.26
2019-06-07T23:50:55.387Z,70.33
2019-06-07T23:54:01.811Z,70.44
2019-06-07T23:57:08.725Z,70.45
